Hauptseite
METAR-TAF:

METAR-TAF

Flughäfen :

Chièvres, Belgien

Militärflugplatz Chièvres

Breite: 50-34N, Länge: 003-50E, Höhe: 60 m

Beobachtung

Neuester Wetterbericht von vor 31 Minuten, um 05:25 UTC
Wind 8 kt aus Südwest
Temperatur 7°C
Luftfeuchtigkeit 87%
Luftdruck 1017 hPa
Sichtweite 10 km oder mehr

METAR: EBCV 260525Z AUTO 23008KT 9999 FEW034/// 07/05 Q1017 BLU

Zeit: 07:56 (05:56 UTC)

Prognose

Neuester Wetterbericht von vor 14 Stunden und 15 Minuten, um 15:41 UTC
Gültige Prognose vom 25 um 19 UTC bis 26 um 07 UTC
Wind 10 kt aus West/Südwest
Sichtweite 10 km oder mehr
Leicht bewölkt in der Höhe von 3500 ft
Wahrscheinlichkeit 40% :
Zeitweise
vom 25 um 20 UTC bis 26 um 03 UTC
Aufgelockert bewölkt in der Höhe von 2000 ft

TAF: EBCV 251541Z 2519/2607 24010KT 9999 FEW035 PROB40 TEMPO 2520/2603 SCT020 BY EBWM

Wetterbeobachtungen und Prognosen von mehr als 4000 Flughäfen (METAR und TAF Bericht).

Die verfügbaren Stationen werden durch gelbe und rote Markierungen auf der Karte dargestellt.

Führen Sie die Maus auf sie, um den Namen der Station zu sehen.

Darauf klicken, um die Beobachtung von Wetterbeobachtungen und Prognosen zu sehen.

Um die Karte zu ändern : klicken Sie auf den grünen Tasten mit einem schwarzen Kreuz Zum Vergrößern, auf den grünen Button mit einem Gedankenstrich zu verkleinern, oder auf die grünen Pfeile für benachbarte Karten.


METAR-TAF: